sensor_id;sensor_type;location;lat;lon;timestamp;pressure;altitude;pressure_sealevel;temperature;humidity
16525;BME280;8375;33.594;-117.718;2024-02-26T00:01:34;100341.44;;;18.29;84.63
16525;BME280;8375;33.594;-117.718;2024-02-26T00:04:05;100337.19;;;18.12;84.55
16525;BME280;8375;33.594;-117.718;2024-02-26T00:06:33;100344.75;;;18.07;85.55
16525;BME280;8375;33.594;-117.718;2024-02-26T00:09:03;100344.75;;;18.07;85.62
16525;BME280;8375;33.594;-117.718;2024-02-26T00:11:32;100344.09;;;18.13;87.42
16525;BME280;8375;33.594;-117.718;2024-02-26T00:14:01;100341.94;;;18.08;87.11
16525;BME280;8375;33.594;-117.718;2024-02-26T00:16:30;100339.31;;;18.00;86.57
16525;BME280;8375;33.594;-117.718;2024-02-26T00:18:59;100342.09;;;17.98;87.85
16525;BME280;8375;33.594;-117.718;2024-02-26T00:21:29;100343.88;;;17.89;88.29
16525;BME280;8375;33.594;-117.718;2024-02-26T00:23:57;100335.50;;;17.94;87.54
16525;BME280;8375;33.594;-117.718;2024-02-26T00:26:26;100345.03;;;17.95;88.48
16525;BME280;8375;33.594;-117.718;2024-02-26T00:28:55;100344.56;;;18.00;90.03
16525;BME280;8375;33.594;-117.718;2024-02-26T00:31:23;100340.59;;;17.96;90.13
16525;BME280;8375;33.594;-117.718;2024-02-26T00:33:52;100338.13;;;17.94;88.04
16525;BME280;8375;33.594;-117.718;2024-02-26T00:36:20;100340.25;;;17.91;88.50
16525;BME280;8375;33.594;-117.718;2024-02-26T00:38:51;100342.41;;;17.87;85.40
16525;BME280;8375;33.594;-117.718;2024-02-26T00:41:21;100349.59;;;17.77;82.68
16525;BME280;8375;33.594;-117.718;2024-02-26T00:43:49;100340.69;;;17.53;80.64
16525;BME280;8375;33.594;-117.718;2024-02-26T00:46:18;100337.22;;;17.44;80.12
16525;BME280;8375;33.594;-117.718;2024-02-26T00:48:46;100346.38;;;17.40;81.78
16525;BME280;8375;33.594;-117.718;2024-02-26T00:51:15;100349.97;;;17.30;78.28
16525;BME280;8375;33.594;-117.718;2024-02-26T00:53:44;100354.84;;;17.25;81.99
16525;BME280;8375;33.594;-117.718;2024-02-26T00:56:14;100348.13;;;17.14;78.01
16525;BME280;8375;33.594;-117.718;2024-02-26T00:58:43;100361.69;;;17.10;81.07
16525;BME280;8375;33.594;-117.718;2024-02-26T01:01:11;100364.25;;;17.01;79.30
16525;BME280;8375;33.594;-117.718;2024-02-26T01:03:40;100363.78;;;16.98;80.29
16525;BME280;8375;33.594;-117.718;2024-02-26T01:06:08;100358.94;;;16.93;80.61
16525;BME280;8375;33.594;-117.718;2024-02-26T01:08:37;100358.41;;;16.81;79.88
16525;BME280;8375;33.594;-117.718;2024-02-26T01:11:06;100349.50;;;16.74;78.74
16525;BME280;8375;33.594;-117.718;2024-02-26T01:13:36;100357.50;;;16.72;81.42
16525;BME280;8375;33.594;-117.718;2024-02-26T01:16:05;100365.03;;;16.67;81.96
16525;BME280;8375;33.594;-117.718;2024-02-26T01:18:34;100365.50;;;16.63;83.28
16525;BME280;8375;33.594;-117.718;2024-02-26T01:21:03;100365.94;;;16.58;81.17
16525;BME280;8375;33.594;-117.718;2024-02-26T01:23:35;100370.69;;;16.54;81.75
16525;BME280;8375;33.594;-117.718;2024-02-26T01:26:04;100377.88;;;16.52;82.73
16525;BME280;8375;33.594;-117.718;2024-02-26T01:28:32;100394.72;;;16.50;83.46
16525;BME280;8375;33.594;-117.718;2024-02-26T01:31:03;100397.94;;;16.43;83.66
16525;BME280;8375;33.594;-117.718;2024-02-26T01:33:34;100378.72;;;16.35;82.27
16525;BME280;8375;33.594;-117.718;2024-02-26T01:36:03;100376.03;;;16.26;82.38
16525;BME280;8375;33.594;-117.718;2024-02-26T01:38:31;100386.44;;;16.18;83.71
16525;BME280;8375;33.594;-117.718;2024-02-26T01:41:00;100381.81;;;16.12;83.07
16525;BME280;8375;33.594;-117.718;2024-02-26T01:43:28;100385.53;;;16.09;84.33
16525;BME280;8375;33.594;-117.718;2024-02-26T01:45:57;100387.63;;;16.06;84.99
16525;BME280;8375;33.594;-117.718;2024-02-26T01:48:28;100386.59;;;15.98;83.89
16525;BME280;8375;33.594;-117.718;2024-02-26T01:50:57;100390.91;;;15.90;83.31
16525;BME280;8375;33.594;-117.718;2024-02-26T01:53:25;100399.06;;;15.77;82.46
16525;BME280;8375;33.594;-117.718;2024-02-26T01:55:54;100395.78;;;15.75;85.01
16525;BME280;8375;33.594;-117.718;2024-02-26T01:58:23;100389.88;;;15.73;82.40
16525;BME280;8375;33.594;-117.718;2024-02-26T02:00:52;100384.53;;;15.64;82.23
16525;BME280;8375;33.594;-117.718;2024-02-26T02:03:21;100386.66;;;15.61;84.91
16525;BME280;8375;33.594;-117.718;2024-02-26T02:05:51;100387.75;;;15.58;86.01
16525;BME280;8375;33.594;-117.718;2024-02-26T02:08:20;100395.88;;;15.55;86.85
16525;BME280;8375;33.594;-117.718;2024-02-26T02:10:50;100391.25;;;15.49;90.43
16525;BME280;8375;33.594;-117.718;2024-02-26T02:13:19;100390.44;;;15.48;90.85
16525;BME280;8375;33.594;-117.718;2024-02-26T02:15:47;100393.47;;;15.44;89.49
16525;BME280;8375;33.594;-117.718;2024-02-26T02:18:16;100396.53;;;15.39;90.07
16525;BME280;8375;33.594;-117.718;2024-02-26T02:20:47;100399.28;;;15.37;90.79
16525;BME280;8375;33.594;-117.718;2024-02-26T02:23:16;100397.78;;;15.35;90.59
16525;BME280;8375;33.594;-117.718;2024-02-26T02:25:44;100392.69;;;15.33;92.68
16525;BME280;8375;33.594;-117.718;2024-02-26T02:28:13;100388.41;;;15.32;91.93
16525;BME280;8375;33.594;-117.718;2024-02-26T02:30:41;100386.78;;;15.31;92.45
16525;BME280;8375;33.594;-117.718;2024-02-26T02:33:10;100379.22;;;15.28;93.06
16525;BME280;8375;33.594;-117.718;2024-02-26T02:35:39;100388.31;;;15.24;92.26
16525;BME280;8375;33.594;-117.718;2024-02-26T02:38:10;100397.28;;;15.21;91.80
16525;BME280;8375;33.594;-117.718;2024-02-26T02:40:38;100406.38;;;15.17;92.62
16525;BME280;8375;33.594;-117.718;2024-02-26T02:43:07;100409.41;;;15.13;93.33
16525;BME280;8375;33.594;-117.718;2024-02-26T02:45:35;100419.47;;;15.07;94.13
16525;BME280;8375;33.594;-117.718;2024-02-26T02:48:05;100409.31;;;15.04;92.89
16525;BME280;8375;33.594;-117.718;2024-02-26T02:50:33;100411.41;;;15.01;92.63
16525;BME280;8375;33.594;-117.718;2024-02-26T02:53:02;100424.06;;;14.95;92.83
16525;BME280;8375;33.594;-117.718;2024-02-26T02:55:32;100437.41;;;14.92;92.17
16525;BME280;8375;33.594;-117.718;2024-02-26T02:58:01;100436.16;;;14.87;90.67
16525;BME280;8375;33.594;-117.718;2024-02-26T03:00:29;100445.13;;;14.84;89.98
16525;BME280;8375;33.594;-117.718;2024-02-26T03:02:58;100454.06;;;14.81;91.06
16525;BME280;8375;33.594;-117.718;2024-02-26T03:05:26;100454.50;;;14.77;90.54
16525;BME280;8375;33.594;-117.718;2024-02-26T03:07:55;100465.06;;;14.75;90.54
16525;BME280;8375;33.594;-117.718;2024-02-26T03:10:24;100465.34;;;14.72;91.82
16525;BME280;8375;33.594;-117.718;2024-02-26T03:12:54;100463.69;;;14.71;89.67
16525;BME280;8375;33.594;-117.718;2024-02-26T03:15:23;100458.88;;;14.66;90.74
16525;BME280;8375;33.594;-117.718;2024-02-26T03:17:51;100461.59;;;14.65;90.10
16525;BME280;8375;33.594;-117.718;2024-02-26T03:20:20;100457.34;;;14.64;92.92
16525;BME280;8375;33.594;-117.718;2024-02-26T03:22:49;100463.41;;;14.64;95.81
16525;BME280;8375;33.594;-117.718;2024-02-26T03:25:17;100464.50;;;14.62;94.96
16525;BME280;8375;33.594;-117.718;2024-02-26T03:27:46;100468.63;;;14.55;95.86
16525;BME280;8375;33.594;-117.718;2024-02-26T03:30:16;100460.09;;;14.52;96.85
16525;BME280;8375;33.594;-117.718;2024-02-26T03:32:45;100456.00;;;14.50;96.39
16525;BME280;8375;33.594;-117.718;2024-02-26T03:35:14;100460.91;;;14.43;97.59
16525;BME280;8375;33.594;-117.718;2024-02-26T03:37:42;100455.00;;;14.21;97.75
16525;BME280;8375;33.594;-117.718;2024-02-26T03:40:12;100452.91;;;14.15;100.00
16525;BME280;8375;33.594;-117.718;2024-02-26T03:42:41;100459.25;;;14.22;100.00
16525;BME280;8375;33.594;-117.718;2024-02-26T03:45:10;100460.91;;;14.23;100.00
16525;BME280;8375;33.594;-117.718;2024-02-26T03:47:40;100461.88;;;14.22;100.00
16525;BME280;8375;33.594;-117.718;2024-02-26T03:50:09;100460.50;;;14.18;100.00
16525;BME280;8375;33.594;-117.718;2024-02-26T03:52:38;100456.22;;;14.17;100.00
16525;BME280;8375;33.594;-117.718;2024-02-26T03:55:07;100454.84;;;14.13;100.00
16525;BME280;8375;33.594;-117.718;2024-02-26T03:57:36;100457.59;;;14.12;100.00
16525;BME280;8375;33.594;-117.718;2024-02-26T04:00:06;100463.47;;;14.04;100.00
16525;BME280;8375;33.594;-117.718;2024-02-26T04:02:35;100468.44;;;14.07;100.00
16525;BME280;8375;33.594;-117.718;2024-02-26T04:05:09;100468.59;;;14.05;100.00
16525;BME280;8375;33.594;-117.718;2024-02-26T04:07:38;100475.84;;;14.02;100.00
16525;BME280;8375;33.594;-117.718;2024-02-26T04:10:09;100488.34;;;13.98;100.00
16525;BME280;8375;33.594;-117.718;2024-02-26T04:12:39;100495.59;;;13.94;100.00
16525;BME280;8375;33.594;-117.718;2024-02-26T04:15:09;100505.22;;;13.94;100.00
16525;BME280;8375;33.594;-117.718;2024-02-26T04:17:38;100502.88;;;13.91;100.00
16525;BME280;8375;33.594;-117.718;2024-02-26T04:20:14;100499.69;;;13.87;100.00
16525;BME280;8375;33.594;-117.718;2024-02-26T04:22:43;100502.19;;;13.89;100.00
16525;BME280;8375;33.594;-117.718;2024-02-26T04:25:12;100491.59;;;13.81;100.00
16525;BME280;8375;33.594;-117.718;2024-02-26T04:27:41;100479.44;;;13.70;100.00
16525;BME280;8375;33.594;-117.718;2024-02-26T04:30:10;100476.16;;;13.68;100.00
16525;BME280;8375;33.594;-117.718;2024-02-26T04:32:39;100486.31;;;13.71;100.00
16525;BME280;8375;33.594;-117.718;2024-02-26T04:35:10;100490.47;;;13.73;100.00
16525;BME280;8375;33.594;-117.718;2024-02-26T04:37:39;100505.84;;;13.76;100.00
16525;BME280;8375;33.594;-117.718;2024-02-26T04:40:08;100505.28;;;13.73;100.00
16525;BME280;8375;33.594;-117.718;2024-02-26T04:42:37;100503.63;;;13.72;100.00
16525;BME280;8375;33.594;-117.718;2024-02-26T04:45:06;100509.94;;;13.69;100.00
16525;BME280;8375;33.594;-117.718;2024-02-26T04:47:35;100519.78;;;13.66;100.00
16525;BME280;8375;33.594;-117.718;2024-02-26T04:50:04;100509.19;;;13.57;100.00
16525;BME280;8375;33.594;-117.718;2024-02-26T04:52:38;100517.28;;;13.54;100.00
16525;BME280;8375;33.594;-117.718;2024-02-26T04:55:10;100513.72;;;13.55;100.00
16525;BME280;8375;33.594;-117.718;2024-02-26T04:57:38;100516.19;;;13.57;100.00
16525;BME280;8375;33.594;-117.718;2024-02-26T05:00:08;100510.03;;;13.58;100.00
16525;BME280;8375;33.594;-117.718;2024-02-26T05:02:37;100511.09;;;13.55;100.00
16525;BME280;8375;33.594;-117.718;2024-02-26T05:05:06;100526.06;;;13.53;100.00
16525;BME280;8375;33.594;-117.718;2024-02-26T05:07:39;100527.72;;;13.54;100.00
16525;BME280;8375;33.594;-117.718;2024-02-26T05:10:10;100516.56;;;13.52;100.00
16525;BME280;8375;33.594;-117.718;2024-02-26T05:12:38;100520.03;;;13.53;100.00
16525;BME280;8375;33.594;-117.718;2024-02-26T05:15:09;100531.41;;;13.52;100.00
16525;BME280;8375;33.594;-117.718;2024-02-26T05:17:42;100533.19;;;13.51;100.00
16525;BME280;8375;33.594;-117.718;2024-02-26T05:20:11;100522.91;;;13.49;100.00
16525;BME280;8375;33.594;-117.718;2024-02-26T05:22:42;100511.56;;;13.39;100.00
16525;BME280;8375;33.594;-117.718;2024-02-26T05:25:10;100503.03;;;13.16;100.00
16525;BME280;8375;33.594;-117.718;2024-02-26T05:27:39;100493.13;;;13.10;100.00
16525;BME280;8375;33.594;-117.718;2024-02-26T05:30:09;100494.25;;;13.17;100.00
16525;BME280;8375;33.594;-117.718;2024-02-26T05:32:38;100498.25;;;13.21;100.00
16525;BME280;8375;33.594;-117.718;2024-02-26T05:35:07;100501.13;;;13.18;100.00
16525;BME280;8375;33.594;-117.718;2024-02-26T05:37:36;100493.31;;;13.18;100.00
16525;BME280;8375;33.594;-117.718;2024-02-26T05:40:07;100491.22;;;13.12;100.00
16525;BME280;8375;33.594;-117.718;2024-02-26T05:42:36;100490.69;;;13.18;100.00
16525;BME280;8375;33.594;-117.718;2024-02-26T05:45:06;100499.91;;;13.22;100.00
16525;BME280;8375;33.594;-117.718;2024-02-26T05:47:35;100500.63;;;13.24;100.00
16525;BME280;8375;33.594;-117.718;2024-02-26T05:50:09;100490.44;;;13.21;100.00
16525;BME280;8375;33.594;-117.718;2024-02-26T05:52:40;100488.78;;;13.20;100.00
16525;BME280;8375;33.594;-117.718;2024-02-26T05:55:14;100491.41;;;13.20;100.00
16525;BME280;8375;33.594;-117.718;2024-02-26T05:57:43;100499.06;;;13.21;100.00
16525;BME280;8375;33.594;-117.718;2024-02-26T06:00:13;100494.00;;;13.20;100.00
16525;BME280;8375;33.594;-117.718;2024-02-26T06:02:42;100491.50;;;13.18;100.00
16525;BME280;8375;33.594;-117.718;2024-02-26T06:05:10;100504.44;;;13.20;100.00
16525;BME280;8375;33.594;-117.718;2024-02-26T06:07:39;100508.25;;;13.16;100.00
16525;BME280;8375;33.594;-117.718;2024-02-26T06:10:10;100524.94;;;13.13;100.00
16525;BME280;8375;33.594;-117.718;2024-02-26T06:12:40;100518.22;;;13.11;100.00
16525;BME280;8375;33.594;-117.718;2024-02-26T06:15:09;100513.78;;;13.01;100.00
16525;BME280;8375;33.594;-117.718;2024-02-26T06:17:38;100506.19;;;12.98;100.00
16525;BME280;8375;33.594;-117.718;2024-02-26T06:20:08;100509.63;;;12.99;100.00
16525;BME280;8375;33.594;-117.718;2024-02-26T06:22:39;100515.09;;;12.96;100.00
16525;BME280;8375;33.594;-117.718;2024-02-26T06:25:10;100516.19;;;12.93;100.00
16525;BME280;8375;33.594;-117.718;2024-02-26T06:27:39;100515.47;;;12.91;100.00
16525;BME280;8375;33.594;-117.718;2024-02-26T06:30:08;100522.13;;;12.84;100.00
16525;BME280;8375;33.594;-117.718;2024-02-26T06:32:37;100511.28;;;12.79;100.00
16525;BME280;8375;33.594;-117.718;2024-02-26T06:35:06;100512.47;;;12.74;100.00
16525;BME280;8375;33.594;-117.718;2024-02-26T06:37:36;100520.28;;;12.74;100.00
16525;BME280;8375;33.594;-117.718;2024-02-26T06:40:10;100535.91;;;12.74;100.00
16525;BME280;8375;33.594;-117.718;2024-02-26T06:42:39;100536.97;;;12.72;100.00
16525;BME280;8375;33.594;-117.718;2024-02-26T06:45:10;100531.06;;;12.70;100.00
16525;BME280;8375;33.594;-117.718;2024-02-26T06:47:38;100537.91;;;12.71;100.00
16525;BME280;8375;33.594;-117.718;2024-02-26T06:50:07;100537.91;;;12.71;100.00
16525;BME280;8375;33.594;-117.718;2024-02-26T06:52:36;100532.00;;;12.69;100.00
16525;BME280;8375;33.594;-117.718;2024-02-26T06:55:05;100529.44;;;12.57;100.00
16525;BME280;8375;33.594;-117.718;2024-02-26T06:57:36;100519.28;;;12.54;100.00
16525;BME280;8375;33.594;-117.718;2024-02-26T07:00:06;100512.41;;;12.53;100.00
16525;BME280;8375;33.594;-117.718;2024-02-26T07:02:35;100500.47;;;12.51;100.00
16525;BME280;8375;33.594;-117.718;2024-02-26T07:05:06;100509.34;;;12.48;100.00
16525;BME280;8375;33.594;-117.718;2024-02-26T07:07:35;100493.97;;;12.45;100.00
16525;BME280;8375;33.594;-117.718;2024-02-26T07:10:05;100498.81;;;12.50;100.00
16525;BME280;8375;33.594;-117.718;2024-02-26T07:12:35;100490.06;;;12.51;100.00
16525;BME280;8375;33.594;-117.718;2024-02-26T07:15:08;100494.44;;;12.50;100.00
16525;BME280;8375;33.594;-117.718;2024-02-26T07:17:37;100499.53;;;12.52;100.00
16525;BME280;8375;33.594;-117.718;2024-02-26T07:20:09;100500.34;;;12.52;100.00
16525;BME280;8375;33.594;-117.718;2024-02-26T07:22:37;100498.44;;;12.54;100.00
16525;BME280;8375;33.594;-117.718;2024-02-26T07:25:06;100504.75;;;12.52;100.00
16525;BME280;8375;33.594;-117.718;2024-02-26T07:27:41;100508.03;;;12.54;100.00
16525;BME280;8375;33.594;-117.718;2024-02-26T07:30:10;100522.47;;;12.58;100.00
16525;BME280;8375;33.594;-117.718;2024-02-26T07:32:39;100517.28;;;12.46;100.00
16525;BME280;8375;33.594;-117.718;2024-02-26T07:35:11;100506.88;;;12.46;100.00
16525;BME280;8375;33.594;-117.718;2024-02-26T07:37:39;100496.31;;;12.48;100.00
16525;BME280;8375;33.594;-117.718;2024-02-26T07:40:09;100496.91;;;12.52;100.00
16525;BME280;8375;33.594;-117.718;2024-02-26T07:42:38;100492.66;;;12.51;100.00
16525;BME280;8375;33.594;-117.718;2024-02-26T07:45:10;100478.69;;;12.52;100.00
16525;BME280;8375;33.594;-117.718;2024-02-26T07:47:39;100494.56;;;12.49;100.00
16525;BME280;8375;33.594;-117.718;2024-02-26T07:50:08;100506.38;;;12.53;100.00
16525;BME280;8375;33.594;-117.718;2024-02-26T09:30:14;100437.19;;;11.95;100.00
16525;BME280;8375;33.594;-117.718;2024-02-26T09:32:46;100433.72;;;11.94;100.00
16525;BME280;8375;33.594;-117.718;2024-02-26T09:35:15;100444.28;;;11.93;100.00
16525;BME280;8375;33.594;-117.718;2024-02-26T09:37:44;100434.81;;;11.92;100.00
16525;BME280;8375;33.594;-117.718;2024-02-26T09:40:13;100436.72;;;11.89;100.00
16525;BME280;8375;33.594;-117.718;2024-02-26T09:42:45;100427.13;;;11.90;100.00
16525;BME280;8375;33.594;-117.718;2024-02-26T09:45:19;100421.81;;;11.92;100.00
16525;BME280;8375;33.594;-117.718;2024-02-26T09:47:50;100403.00;;;11.88;100.00
16525;BME280;8375;33.594;-117.718;2024-02-26T09:50:22;100414.13;;;11.90;100.00
16525;BME280;8375;33.594;-117.718;2024-02-26T09:52:51;100432.69;;;11.85;100.00
16525;BME280;8375;33.594;-117.718;2024-02-26T09:55:20;100429.38;;;11.83;100.00
16525;BME280;8375;33.594;-117.718;2024-02-26T09:57:49;100439.31;;;11.78;100.00
16525;BME280;8375;33.594;-117.718;2024-02-26T10:00:21;100440.97;;;11.79;100.00
16525;BME280;8375;33.594;-117.718;2024-02-26T10:02:51;100442.63;;;11.80;100.00
16525;BME280;8375;33.594;-117.718;2024-02-26T10:05:23;100456.59;;;11.79;100.00
16525;BME280;8375;33.594;-117.718;2024-02-26T10:07:53;100433.41;;;11.76;100.00
16525;BME280;8375;33.594;-117.718;2024-02-26T10:10:23;100418.06;;;11.50;100.00
16525;BME280;8375;33.594;-117.718;2024-02-26T10:12:52;100415.69;;;11.58;100.00
16525;BME280;8375;33.594;-117.718;2024-02-26T10:15:22;100408.38;;;11.64;100.00
16525;BME280;8375;33.594;-117.718;2024-02-26T10:17:50;100414.38;;;11.64;100.00
16525;BME280;8375;33.594;-117.718;2024-02-26T10:20:20;100445.59;;;11.64;100.00
16525;BME280;8375;33.594;-117.718;2024-02-26T10:22:49;100430.13;;;11.63;100.00
16525;BME280;8375;33.594;-117.718;2024-02-26T10:25:18;100419.72;;;11.63;100.00
16525;BME280;8375;33.594;-117.718;2024-02-26T10:27:48;100405.63;;;11.65;100.00
16525;BME280;8375;33.594;-117.718;2024-02-26T10:30:17;100400.44;;;11.65;100.00
16525;BME280;8375;33.594;-117.718;2024-02-26T10:32:48;100398.31;;;11.59;100.00
16525;BME280;8375;33.594;-117.718;2024-02-26T10:35:18;100400.56;;;11.64;100.00
16525;BME280;8375;33.594;-117.718;2024-02-26T10:37:47;100388.28;;;11.66;100.00
16525;BME280;8375;33.594;-117.718;2024-02-26T10:40:18;100389.94;;;11.67;100.00
16525;BME280;8375;33.594;-117.718;2024-02-26T10:42:47;100378.94;;;11.63;100.00
16525;BME280;8375;33.594;-117.718;2024-02-26T10:45:15;100382.63;;;11.49;100.00
16525;BME280;8375;33.594;-117.718;2024-02-26T10:47:45;100383.34;;;11.51;100.00
16525;BME280;8375;33.594;-117.718;2024-02-26T10:50:16;100362.16;;;11.56;100.00
16525;BME280;8375;33.594;-117.718;2024-02-26T10:52:44;100367.72;;;11.63;100.00
16525;BME280;8375;33.594;-117.718;2024-02-26T10:55:15;100380.00;;;11.61;100.00
16525;BME280;8375;33.594;-117.718;2024-02-26T10:57:46;100391.22;;;11.61;100.00
16525;BME280;8375;33.594;-117.718;2024-02-26T11:00:16;100399.72;;;11.63;100.00
16525;BME280;8375;33.594;-117.718;2024-02-26T11:02:48;100405.63;;;11.65;100.00
16525;BME280;8375;33.594;-117.718;2024-02-26T11:05:20;100402.09;;;11.66;100.00
16525;BME280;8375;33.594;-117.718;2024-02-26T11:07:49;100387.09;;;11.58;100.00
16525;BME280;8375;33.594;-117.718;2024-02-26T11:10:19;100374.09;;;11.58;100.00
16525;BME280;8375;33.594;-117.718;2024-02-26T11:12:48;100364.66;;;11.57;100.00
16525;BME280;8375;33.594;-117.718;2024-02-26T11:15:18;100364.19;;;11.52;100.00
16525;BME280;8375;33.594;-117.718;2024-02-26T11:17:48;100370.34;;;11.51;100.00
16525;BME280;8375;33.594;-117.718;2024-02-26T11:20:19;100387.34;;;11.55;100.00
16525;BME280;8375;33.594;-117.718;2024-02-26T11:22:48;100391.59;;;11.56;100.00
16525;BME280;8375;33.594;-117.718;2024-02-26T11:25:17;100378.84;;;11.53;100.00
16525;BME280;8375;33.594;-117.718;2024-02-26T11:27:49;100380.72;;;11.51;100.00
16525;BME280;8375;33.594;-117.718;2024-02-26T11:30:19;100372.22;;;11.49;100.00
16525;BME280;8375;33.594;-117.718;2024-02-26T11:32:51;100377.44;;;11.49;100.00
16525;BME280;8375;33.594;-117.718;2024-02-26T11:35:22;100379.06;;;11.50;100.00
16525;BME280;8375;33.594;-117.718;2024-02-26T11:37:56;100389.81;;;11.57;100.00
16525;BME280;8375;33.594;-117.718;2024-02-26T11:40:27;100371.75;;;11.55;100.00
16525;BME280;8375;33.594;-117.718;2024-02-26T11:42:56;100377.88;;;11.54;100.00
16525;BME280;8375;33.594;-117.718;2024-02-26T11:45:49;100394.44;;;11.53;100.00
16525;BME280;8375;33.594;-117.718;2024-02-26T11:48:22;100395.16;;;11.55;100.00
16525;BME280;8375;33.594;-117.718;2024-02-26T11:53:30;100426.44;;;11.54;100.00
16525;BME280;8375;33.594;-117.718;2024-02-26T11:56:23;100433.44;;;11.53;100.00
16525;BME280;8375;33.594;-117.718;2024-02-26T11:59:03;100432.72;;;11.51;100.00
16525;BME280;8375;33.594;-117.718;2024-02-26T12:01:43;100432.50;;;11.54;100.00
16525;BME280;8375;33.594;-117.718;2024-02-26T12:04:16;100446.19;;;11.56;100.00
16525;BME280;8375;33.594;-117.718;2024-02-26T12:06:47;100458.25;;;11.57;100.00
16525;BME280;8375;33.594;-117.718;2024-02-26T12:35:36;100475.13;;;11.40;100.00
16525;BME280;8375;33.594;-117.718;2024-02-26T12:38:05;100491.09;;;11.47;100.00
16525;BME280;8375;33.594;-117.718;2024-02-26T12:40:34;100499.00;;;11.45;100.00
16525;BME280;8375;33.594;-117.718;2024-02-26T12:43:03;100484.94;;;11.25;100.00
16525;BME280;8375;33.594;-117.718;2024-02-26T12:45:32;100485.03;;;11.35;100.00
16525;BME280;8375;33.594;-117.718;2024-02-26T12:48:00;100489.78;;;11.41;100.00
16525;BME280;8375;33.594;-117.718;2024-02-26T12:50:29;100480.31;;;11.40;100.00
16525;BME280;8375;33.594;-117.718;2024-02-26T12:53:00;100474.06;;;11.43;100.00
16525;BME280;8375;33.594;-117.718;2024-02-26T12:55:29;100454.22;;;11.42;100.00
16525;BME280;8375;33.594;-117.718;2024-02-26T12:58:00;100428.00;;;11.45;100.00
16525;BME280;8375;33.594;-117.718;2024-02-26T13:00:32;100437.22;;;11.49;100.00
16525;BME280;8375;33.594;-117.718;2024-02-26T13:03:00;100437.22;;;11.49;100.00
16525;BME280;8375;33.594;-117.718;2024-02-26T13:05:30;100435.31;;;11.40;100.00
16525;BME280;8375;33.594;-117.718;2024-02-26T13:08:00;100432.50;;;11.43;100.00
16525;BME280;8375;33.594;-117.718;2024-02-26T13:10:29;100432.50;;;11.43;100.00
16525;BME280;8375;33.594;-117.718;2024-02-26T13:12:58;100439.81;;;11.49;100.00
16525;BME280;8375;33.594;-117.718;2024-02-26T13:15:30;100444.88;;;11.51;100.00
16525;BME280;8375;33.594;-117.718;2024-02-26T13:18:09;100449.97;;;11.52;100.00
16525;BME280;8375;33.594;-117.718;2024-02-26T13:20:38;100438.50;;;11.55;100.00
16525;BME280;8375;33.594;-117.718;2024-02-26T13:23:11;100418.53;;;11.55;100.00
16525;BME280;8375;33.594;-117.718;2024-02-26T13:25:40;100416.88;;;11.54;100.00
16525;BME280;8375;33.594;-117.718;2024-02-26T13:28:12;100407.19;;;11.56;100.00
16525;BME280;8375;33.594;-117.718;2024-02-26T13:30:42;100411.31;;;11.59;100.00
16525;BME280;8375;33.594;-117.718;2024-02-26T13:33:18;100416.66;;;11.57;100.00
16525;BME280;8375;33.594;-117.718;2024-02-26T13:35:47;100406.50;;;11.54;100.00
16525;BME280;8375;33.594;-117.718;2024-02-26T13:38:17;100410.50;;;11.58;100.00
16525;BME280;8375;33.594;-117.718;2024-02-26T13:40:46;100415.56;;;11.60;100.00
16525;BME280;8375;33.594;-117.718;2024-02-26T13:43:15;100412.97;;;11.60;100.00
16525;BME280;8375;33.594;-117.718;2024-02-26T13:45:43;100400.69;;;11.62;100.00
16525;BME280;8375;33.594;-117.718;2024-02-26T13:48:13;100381.44;;;11.65;100.00
16525;BME280;8375;33.594;-117.718;2024-02-26T13:50:42;100362.50;;;11.63;100.00
16525;BME280;8375;33.594;-117.718;2024-02-26T13:53:11;100348.44;;;11.65;100.00
16525;BME280;8375;33.594;-117.718;2024-02-26T13:55:42;100342.28;;;11.66;100.00
16525;BME280;8375;33.594;-117.718;2024-02-26T13:58:12;100330.13;;;11.67;100.00
16525;BME280;8375;33.594;-117.718;2024-02-26T14:00:41;100319.03;;;11.65;100.00
16525;BME280;8375;33.594;-117.718;2024-02-26T14:03:10;100316.16;;;11.68;100.00
16525;BME280;8375;33.594;-117.718;2024-02-26T14:05:38;100326.56;;;11.68;100.00
16525;BME280;8375;33.594;-117.718;2024-02-26T14:08:07;100324.94;;;11.67;100.00
16525;BME280;8375;33.594;-117.718;2024-02-26T14:10:36;100331.19;;;11.64;100.00
16525;BME280;8375;33.594;-117.718;2024-02-26T14:13:06;100321.63;;;11.65;100.00
16525;BME280;8375;33.594;-117.718;2024-02-26T14:15:35;100316.28;;;11.66;100.00
16525;BME280;8375;33.594;-117.718;2024-02-26T14:18:06;100302.72;;;11.63;100.00
16525;BME280;8375;33.594;-117.718;2024-02-26T14:20:35;100292.34;;;11.51;100.00
16525;BME280;8375;33.594;-117.718;2024-02-26T14:23:05;100292.34;;;11.51;100.00
16525;BME280;8375;33.594;-117.718;2024-02-26T14:25:34;100314.31;;;11.58;100.00
16525;BME280;8375;33.594;-117.718;2024-02-26T14:28:05;100335.44;;;11.65;100.00
16525;BME280;8375;33.594;-117.718;2024-02-26T14:30:34;100341.59;;;11.64;100.00
16525;BME280;8375;33.594;-117.718;2024-02-26T14:33:03;100339.34;;;11.59;100.00
16525;BME280;8375;33.594;-117.718;2024-02-26T14:35:31;100339.81;;;11.65;100.00
16525;BME280;8375;33.594;-117.718;2024-02-26T14:38:00;100342.63;;;11.73;100.00
16525;BME280;8375;33.594;-117.718;2024-02-26T14:40:28;100347.00;;;11.72;100.00
16525;BME280;8375;33.594;-117.718;2024-02-26T14:42:58;100353.06;;;11.62;100.00